createdAt,value
2023-01-11T00:01:10.604Z,5.70
2023-01-11T00:03:38.707Z,5.40
2023-01-11T00:06:06.982Z,5.60
2023-01-11T00:08:35.072Z,5.20
2023-01-11T00:11:03.660Z,5.10
2023-01-11T00:13:31.974Z,5.20
2023-01-11T00:16:06.624Z,4.70
2023-01-11T00:18:36.179Z,4.60
2023-01-11T00:21:06.189Z,4.10
2023-01-11T00:23:38.589Z,4.80
2023-01-11T00:26:10.791Z,4.80
2023-01-11T00:28:39.026Z,4.40
2023-01-11T00:31:07.365Z,4.10
2023-01-11T00:33:35.895Z,3.90
2023-01-11T00:36:04.600Z,4.20
2023-01-11T00:38:32.728Z,4.20
2023-01-11T00:41:00.938Z,4.10
2023-01-11T00:43:29.229Z,4.00
2023-01-11T00:45:58.852Z,3.90
2023-01-11T00:48:27.038Z,3.70
2023-01-11T00:50:57.831Z,3.90
2023-01-11T00:53:25.930Z,3.40
2023-01-11T00:55:54.010Z,3.50
2023-01-11T00:58:22.257Z,3.50
2023-01-11T01:00:50.738Z,3.20
2023-01-11T01:03:19.171Z,3.50
2023-01-11T01:05:47.345Z,3.40
2023-01-11T01:08:15.601Z,3.30
2023-01-11T01:10:43.777Z,3.10
2023-01-11T01:13:12.073Z,3.40
2023-01-11T01:15:40.388Z,3.60
2023-01-11T01:18:08.744Z,2.90
2023-01-11T01:20:36.859Z,3.60
2023-01-11T01:23:04.970Z,3.50
2023-01-11T01:25:33.463Z,3.40
2023-01-11T01:28:01.511Z,3.10
2023-01-11T01:30:30.291Z,3.10
2023-01-11T01:32:59.737Z,2.90
2023-01-11T01:35:29.050Z,2.90
2023-01-11T01:37:57.293Z,2.80
2023-01-11T01:40:25.381Z,3.40
2023-01-11T01:42:55.524Z,3.50
2023-01-11T01:45:26.519Z,3.40
2023-01-11T01:48:01.691Z,3.10
2023-01-11T01:50:38.404Z,3.20
2023-01-11T01:53:14.560Z,3.40
2023-01-11T01:55:48.309Z,3.40
2023-01-11T01:58:20.091Z,2.90
2023-01-11T02:00:48.803Z,3.50
2023-01-11T02:03:21.150Z,3.00
2023-01-11T02:05:51.608Z,2.70
2023-01-11T02:08:31.512Z,2.90
2023-01-11T02:11:00.500Z,3.00
2023-01-11T02:13:30.609Z,3.00
2023-01-11T02:16:00.724Z,3.10
2023-01-11T02:18:29.221Z,3.10
2023-01-11T02:21:17.988Z,3.20
2023-01-11T02:24:28.195Z,3.20
2023-01-11T02:27:16.785Z,3.40
2023-01-11T02:30:09.906Z,2.40
2023-01-11T02:33:05.127Z,2.30
2023-01-11T02:35:43.147Z,2.60
2023-01-11T02:38:17.397Z,2.40
2023-01-11T02:41:02.051Z,2.50
2023-01-11T02:43:58.113Z,2.50
2023-01-11T02:46:32.009Z,2.70
2023-01-11T02:49:32.017Z,3.10
2023-01-11T02:52:14.590Z,2.60
2023-01-11T02:54:45.673Z,2.70
2023-01-11T02:57:15.718Z,2.70
2023-01-11T02:59:47.029Z,2.80
2023-01-11T03:02:15.817Z,2.70
2023-01-11T03:04:44.100Z,2.80
2023-01-11T03:07:21.729Z,2.40
2023-01-11T03:10:07.344Z,2.90
2023-01-11T03:13:07.243Z,2.60
2023-01-11T03:16:08.655Z,3.00
2023-01-11T03:20:09.885Z,2.90
2023-01-11T03:22:57.168Z,2.90
2023-01-11T03:26:15.993Z,2.70
2023-01-11T03:29:19.034Z,3.30
2023-01-11T03:31:58.936Z,2.40
2023-01-11T03:34:42.131Z,2.70
2023-01-11T03:37:30.844Z,2.80
2023-01-11T03:42:34.023Z,2.60
2023-01-11T03:45:03.618Z,2.10
2023-01-11T03:47:34.993Z,2.60
2023-01-11T03:50:09.565Z,2.40
2023-01-11T03:52:41.367Z,2.70
2023-01-11T03:55:15.241Z,2.50
2023-01-11T03:57:48.949Z,2.60
2023-01-11T04:00:21.883Z,2.20
2023-01-11T04:02:50.553Z,2.30
2023-01-11T04:05:19.283Z,2.30
2023-01-11T04:07:47.631Z,2.00
2023-01-11T04:10:16.464Z,2.10
2023-01-11T04:12:48.335Z,1.80
2023-01-11T04:15:18.115Z,2.10
2023-01-11T04:17:46.574Z,1.90
2023-01-11T04:20:15.229Z,1.80
2023-01-11T04:22:43.326Z,1.80
2023-01-11T04:25:11.418Z,1.80
2023-01-11T04:27:41.396Z,1.90
2023-01-11T04:30:10.697Z,2.00
2023-01-11T04:32:39.169Z,2.10
2023-01-11T04:35:07.792Z,2.00
2023-01-11T04:37:35.907Z,1.50
2023-01-11T04:40:05.093Z,2.20
2023-01-11T04:42:33.408Z,2.20
2023-01-11T04:45:01.722Z,1.70
2023-01-11T04:47:29.829Z,2.10
2023-01-11T04:49:58.210Z,1.60
2023-01-11T04:52:26.420Z,1.80
2023-01-11T04:54:54.677Z,1.70
2023-01-11T04:57:23.843Z,2.00
2023-01-11T04:59:52.033Z,1.60
2023-01-11T05:02:20.805Z,1.70
2023-01-11T05:04:49.162Z,1.90
2023-01-11T05:07:17.277Z,1.70
2023-01-11T05:09:45.409Z,1.70
2023-01-11T05:12:14.064Z,1.90
2023-01-11T05:14:42.767Z,1.70
2023-01-11T05:17:17.195Z,1.80
2023-01-11T05:19:45.659Z,1.90
2023-01-11T05:22:13.926Z,1.60
2023-01-11T05:24:42.478Z,1.70
2023-01-11T05:27:10.744Z,2.00
2023-01-11T05:29:38.976Z,1.80
2023-01-11T05:32:07.365Z,1.80
2023-01-11T05:34:35.588Z,1.70
2023-01-11T05:37:03.855Z,2.00
2023-01-11T05:39:32.033Z,1.70
2023-01-11T05:42:00.570Z,2.00
2023-01-11T05:44:28.745Z,1.60
2023-01-11T05:46:56.995Z,2.10
2023-01-11T05:49:25.411Z,1.40
2023-01-11T05:51:53.605Z,1.50
2023-01-11T05:54:22.359Z,1.20
2023-01-11T05:56:50.446Z,1.50
2023-01-11T05:59:19.079Z,1.80
2023-01-11T06:01:48.130Z,1.40
2023-01-11T06:04:17.023Z,1.50
2023-01-11T06:06:45.824Z,1.60
2023-01-11T06:09:14.384Z,1.30
2023-01-11T06:11:42.575Z,1.50
2023-01-11T06:14:11.587Z,1.50
2023-01-11T06:16:40.018Z,1.50
2023-01-11T06:19:08.237Z,1.40
2023-01-11T06:21:36.804Z,1.30
2023-01-11T06:24:05.279Z,1.40
2023-01-11T06:26:33.522Z,1.30
2023-01-11T06:29:02.164Z,1.10
2023-01-11T06:31:30.323Z,1.40
2023-01-11T06:33:58.417Z,1.50
2023-01-11T06:36:29.620Z,1.30
2023-01-11T06:38:58.416Z,1.30
2023-01-11T06:41:27.549Z,1.30
2023-01-11T06:43:55.658Z,1.50
2023-01-11T06:46:23.923Z,1.40
2023-01-11T06:48:53.742Z,1.30
2023-01-11T06:51:21.980Z,1.50
2023-01-11T06:53:50.130Z,1.80
2023-01-11T06:56:20.179Z,1.80
2023-01-11T06:58:48.688Z,1.50
2023-01-11T07:01:18.351Z,1.90
2023-01-11T07:03:46.714Z,1.90
2023-01-11T07:06:15.111Z,1.40
2023-01-11T07:08:43.594Z,1.50
2023-01-11T07:11:12.235Z,1.50
2023-01-11T07:13:40.554Z,1.60
2023-01-11T07:16:08.695Z,1.50
2023-01-11T07:18:37.706Z,1.70
2023-01-11T07:21:06.383Z,1.50
2023-01-11T07:23:35.355Z,1.50
2023-01-11T07:26:03.931Z,1.60
2023-01-11T07:28:32.699Z,1.50
2023-01-11T07:31:00.943Z,1.50
2023-01-11T07:33:29.439Z,1.30
2023-01-11T07:35:57.604Z,1.40
2023-01-11T07:38:25.786Z,1.30
2023-01-11T07:40:54.671Z,1.90
2023-01-11T07:43:23.195Z,1.40
2023-01-11T07:45:53.234Z,1.40
2023-01-11T07:48:24.728Z,1.30
2023-01-11T07:50:54.186Z,1.70
2023-01-11T07:53:22.922Z,1.60
2023-01-11T07:55:51.065Z,1.60
2023-01-11T07:58:19.270Z,1.50
2023-01-11T08:00:47.401Z,1.40
2023-01-11T08:03:15.797Z,1.10
2023-01-11T08:05:44.209Z,1.20
2023-01-11T08:08:12.475Z,1.20
2023-01-11T08:10:42.167Z,1.30
2023-01-11T08:13:14.769Z,1.10
2023-01-11T08:15:43.050Z,1.00
2023-01-11T08:18:12.273Z,0.90
2023-01-11T08:20:41.260Z,1.20
2023-01-11T08:23:10.925Z,0.70
2023-01-11T08:25:39.125Z,0.90
2023-01-11T08:28:08.270Z,0.80
2023-01-11T08:30:37.885Z,1.30
2023-01-11T08:33:06.328Z,1.10
2023-01-11T08:35:38.799Z,1.10
2023-01-11T08:38:07.471Z,0.90
2023-01-11T08:40:36.329Z,1.30
2023-01-11T08:43:05.014Z,1.10
2023-01-11T08:45:33.355Z,1.00
2023-01-11T08:48:01.733Z,1.10
2023-01-11T08:50:30.086Z,0.90
2023-01-11T08:52:59.371Z,0.80
2023-01-11T08:55:28.643Z,0.90
2023-01-11T08:57:59.913Z,1.00
2023-01-11T09:00:28.275Z,0.90
2023-01-11T09:02:56.532Z,1.10
2023-01-11T09:05:24.784Z,1.00
2023-01-11T09:07:56.525Z,1.50
2023-01-11T09:10:25.224Z,1.70
2023-01-11T09:12:54.476Z,2.80
2023-01-11T09:15:24.150Z,2.90
2023-01-11T09:17:53.020Z,3.30
2023-01-11T09:20:22.074Z,2.90
2023-01-11T09:22:53.223Z,2.30
2023-01-11T09:25:22.865Z,2.20
2023-01-11T09:27:52.070Z,2.00
2023-01-11T09:30:22.836Z,1.30
2023-01-11T09:32:52.347Z,1.10
2023-01-11T09:35:21.059Z,1.00
2023-01-11T09:37:51.434Z,1.00
2023-01-11T09:40:36.060Z,0.90
2023-01-11T09:43:04.815Z,1.30
2023-01-11T09:45:33.089Z,1.00
2023-01-11T09:48:14.023Z,1.20
2023-01-11T09:50:47.376Z,1.30
2023-01-11T09:53:20.666Z,1.30
2023-01-11T09:55:50.666Z,1.10
2023-01-11T09:58:47.056Z,1.10
2023-01-11T10:01:25.299Z,1.30
2023-01-11T10:04:32.728Z,1.60
2023-01-11T10:07:36.968Z,0.90
2023-01-11T10:18:39.240Z,0.90
2023-01-11T10:19:47.796Z,0.70
2023-01-11T10:22:27.703Z,0.60
2023-01-11T10:25:16.927Z,0.70
2023-01-11T10:27:59.650Z,0.60
2023-01-11T10:30:41.790Z,0.80
2023-01-11T10:33:36.177Z,0.60
2023-01-11T10:36:12.753Z,0.50
2023-01-11T10:39:06.507Z,0.50
2023-01-11T10:41:47.830Z,0.60
2023-01-11T10:44:22.084Z,1.30
2023-01-11T10:46:53.059Z,0.50
2023-01-11T10:50:05.922Z,1.00
2023-01-11T10:52:53.349Z,0.90
2023-01-11T10:55:36.654Z,0.30
2023-01-11T10:58:04.821Z,0.40
2023-01-11T11:00:58.080Z,0.30
2023-01-11T11:03:48.970Z,0.30
2023-01-11T11:06:31.473Z,0.30
2023-01-11T11:09:05.339Z,0.40
2023-01-11T11:11:45.512Z,0.40
2023-01-11T11:14:19.166Z,0.30
2023-01-11T11:17:24.095Z,0.20
2023-01-11T11:19:53.402Z,0.20
2023-01-11T11:22:21.595Z,0.30
2023-01-11T11:24:58.739Z,0.10
2023-01-11T11:27:39.707Z,0.20
2023-01-11T11:30:13.246Z,0.30
2023-01-11T11:32:51.660Z,0.20
2023-01-11T11:36:06.736Z,0.20
2023-01-11T11:38:40.952Z,0.20
2023-01-11T11:41:15.042Z,0.10
2023-01-11T11:43:48.023Z,0.20
2023-01-11T11:46:25.043Z,0.20
2023-01-11T11:49:17.068Z,0.20
2023-01-11T11:51:47.791Z,0.20
2023-01-11T11:54:38.057Z,0.10
2023-01-11T11:57:17.555Z,0.20
2023-01-11T11:59:49.412Z,0.30
2023-01-11T12:02:30.978Z,0.40
2023-01-11T12:05:04.692Z,0.20
2023-01-11T12:07:49.731Z,0.30
2023-01-11T12:10:25.632Z,0.30
2023-01-11T12:12:56.532Z,0.20
2023-01-11T12:15:32.880Z,0.30
2023-01-11T12:18:27.838Z,0.30
2023-01-11T12:20:56.405Z,0.30
2023-01-11T12:23:26.973Z,0.30
2023-01-11T12:26:35.602Z,0.20
2023-01-11T12:29:16.154Z,0.30
2023-01-11T12:32:21.679Z,0.40
2023-01-11T12:35:15.351Z,0.30
2023-01-11T12:38:19.471Z,0.20
2023-01-11T12:41:17.470Z,0.20
2023-01-11T12:46:49.256Z,0.10
2023-01-11T12:49:46.953Z,0.20
2023-01-11T12:52:48.891Z,0.10
2023-01-11T12:55:33.047Z,0.30
2023-01-11T12:58:14.175Z,0.20
2023-01-11T13:01:20.415Z,0.30
2023-01-11T13:04:16.956Z,0.30
2023-01-11T13:07:15.342Z,0.30
2023-01-11T13:10:19.020Z,0.30
2023-01-11T13:13:01.107Z,0.50
2023-01-11T13:15:45.827Z,0.40
2023-01-11T13:18:25.527Z,1.20
2023-01-11T13:21:11.451Z,0.70
2023-01-11T13:23:48.916Z,0.20
2023-01-11T13:26:23.307Z,0.20
2023-01-11T13:29:05.874Z,0.40
2023-01-11T13:31:35.699Z,0.30
2023-01-11T13:34:33.109Z,0.40
2023-01-11T13:37:14.735Z,0.30
2023-01-11T13:40:01.989Z,0.20
2023-01-11T13:42:48.680Z,0.80
2023-01-11T13:45:28.259Z,0.30
2023-01-11T13:48:27.463Z,0.30
2023-01-11T13:51:15.936Z,0.30
2023-01-11T13:53:44.507Z,0.40
2023-01-11T13:56:31.689Z,0.30
2023-01-11T13:59:15.965Z,0.40
2023-01-11T14:02:23.082Z,0.30
2023-01-11T14:05:14.965Z,0.30
2023-01-11T14:07:58.894Z,0.40
2023-01-11T14:10:41.892Z,0.80
2023-01-11T14:13:26.382Z,3.00
2023-01-11T14:16:03.953Z,1.10
2023-01-11T14:18:56.641Z,0.90
2023-01-11T14:21:34.715Z,0.70
2023-01-11T14:24:05.670Z,0.20
2023-01-11T14:27:00.643Z,0.30
2023-01-11T14:30:05.247Z,0.30
2023-01-11T14:33:19.168Z,0.30
2023-01-11T14:36:22.776Z,0.40
2023-01-11T14:39:20.483Z,0.40
2023-01-11T14:42:18.983Z,0.50
2023-01-11T14:45:24.120Z,0.40
2023-01-11T14:48:03.853Z,0.30
2023-01-11T14:50:39.392Z,0.50
2023-01-11T14:53:12.828Z,0.40
2023-01-11T14:55:43.936Z,0.40
2023-01-11T14:58:32.721Z,0.40
2023-01-11T15:01:08.613Z,0.40
2023-01-11T15:03:47.924Z,0.70
2023-01-11T15:06:18.804Z,0.90
2023-01-11T15:08:53.543Z,1.00
2023-01-11T15:11:37.888Z,1.10
2023-01-11T15:14:32.878Z,1.20
2023-01-11T15:17:02.883Z,1.40
2023-01-11T15:19:34.386Z,1.60
2023-01-11T15:22:05.480Z,1.60
2023-01-11T15:24:39.517Z,1.70
2023-01-11T15:27:22.835Z,1.70
2023-01-11T15:29:56.520Z,1.80
2023-01-11T15:32:28.115Z,1.70
2023-01-11T15:35:34.298Z,1.90
2023-01-11T15:38:19.636Z,1.80
2023-01-11T15:40:49.089Z,1.80
2023-01-11T15:43:57.434Z,2.60
2023-01-11T15:47:16.208Z,1.80
2023-01-11T15:49:52.985Z,1.90
2023-01-11T15:52:43.589Z,1.60
2023-01-11T15:55:57.102Z,1.80
2023-01-11T15:58:44.513Z,1.80
2023-01-11T16:01:12.784Z,1.80
2023-01-11T16:04:22.717Z,1.70
2023-01-11T16:07:19.276Z,2.10
2023-01-11T16:10:27.723Z,2.10
2023-01-11T16:13:28.295Z,1.80
2023-01-11T16:16:11.175Z,2.00
2023-01-11T16:19:12.739Z,1.90
2023-01-11T16:21:44.307Z,1.90
2023-01-11T16:24:20.687Z,2.00
2023-01-11T16:26:57.464Z,2.20
2023-01-11T16:29:31.785Z,1.90
2023-01-11T16:32:05.754Z,2.00
2023-01-11T16:34:42.956Z,2.10
2023-01-11T16:37:43.892Z,1.90
2023-01-11T16:40:37.957Z,2.90
2023-01-11T16:43:07.926Z,2.20
2023-01-11T16:45:44.898Z,2.50
2023-01-11T16:48:24.954Z,2.30
2023-01-11T16:51:11.324Z,2.70
2023-01-11T16:53:42.447Z,2.10
2023-01-11T16:56:21.511Z,2.70
2023-01-11T16:59:34.948Z,2.50
2023-01-11T17:02:04.084Z,2.50
2023-01-11T17:04:39.968Z,3.30
2023-01-11T17:07:22.393Z,2.80
2023-01-11T17:09:51.434Z,2.90
2023-01-11T17:12:24.426Z,2.80
2023-01-11T17:15:23.728Z,2.80
2023-01-11T17:17:53.591Z,3.10
2023-01-11T17:20:29.754Z,2.70
2023-01-11T17:22:59.258Z,2.80
2023-01-11T17:25:44.122Z,2.40
2023-01-11T17:28:18.496Z,3.20
2023-01-11T17:30:50.331Z,2.70
2023-01-11T17:33:29.427Z,2.70
2023-01-11T17:35:59.464Z,2.50
2023-01-11T17:38:29.455Z,2.70
2023-01-11T17:40:59.257Z,3.40
2023-01-11T17:43:29.645Z,2.70
2023-01-11T17:46:01.557Z,3.20
2023-01-11T17:48:31.845Z,2.90
2023-01-11T17:51:02.664Z,2.70
2023-01-11T17:53:33.407Z,2.70
2023-01-11T17:56:05.201Z,3.30
2023-01-11T17:58:47.127Z,3.30
2023-01-11T18:01:20.467Z,3.90
2023-01-11T18:03:58.808Z,3.80
2023-01-11T18:06:39.851Z,2.90
2023-01-11T18:09:22.567Z,3.30
2023-01-11T18:11:52.977Z,3.70
2023-01-11T18:14:25.539Z,3.90
2023-01-11T18:16:58.694Z,4.00
2023-01-11T18:19:42.126Z,4.00
2023-01-11T18:22:33.744Z,4.20
2023-01-11T18:25:27.391Z,3.20
2023-01-11T18:28:32.636Z,3.60
2023-01-11T18:31:01.492Z,4.50
2023-01-11T18:33:34.106Z,4.80
2023-01-11T18:36:04.225Z,6.10
2023-01-11T18:38:35.719Z,5.80
2023-01-11T18:41:08.850Z,6.00
2023-01-11T18:43:37.261Z,6.40
2023-01-11T18:46:05.611Z,6.50
2023-01-11T18:48:33.913Z,5.90
2023-01-11T18:51:02.192Z,5.20
2023-01-11T18:53:30.296Z,5.40
2023-01-11T18:55:58.467Z,5.00
2023-01-11T18:58:27.703Z,5.10
2023-01-11T19:00:56.176Z,4.30
2023-01-11T19:03:24.957Z,5.00
2023-01-11T19:05:53.397Z,4.90
2023-01-11T19:08:21.625Z,5.10
2023-01-11T19:10:49.810Z,4.80
2023-01-11T19:13:18.051Z,4.10
2023-01-11T19:15:46.597Z,4.60
2023-01-11T19:18:15.060Z,4.20
2023-01-11T19:20:43.620Z,4.60
2023-01-11T19:23:12.502Z,3.60
2023-01-11T19:25:40.670Z,3.90
2023-01-11T19:28:09.126Z,4.20
2023-01-11T19:30:39.101Z,4.20
2023-01-11T19:33:07.892Z,4.00
2023-01-11T19:35:39.977Z,4.20
2023-01-11T19:38:08.552Z,4.00
2023-01-11T19:40:37.372Z,3.90
2023-01-11T19:43:05.701Z,3.00
2023-01-11T19:45:33.793Z,3.00
2023-01-11T19:48:02.051Z,3.40
2023-01-11T19:50:30.822Z,2.90
2023-01-11T19:52:59.096Z,3.60
2023-01-11T19:55:27.274Z,3.40
2023-01-11T19:57:55.545Z,3.30
2023-01-11T20:00:23.774Z,3.50
2023-01-11T20:02:51.943Z,3.40
2023-01-11T20:05:21.633Z,4.00
2023-01-11T20:07:49.723Z,3.90
2023-01-11T20:10:18.263Z,4.60
2023-01-11T20:12:50.657Z,5.00
2023-01-11T20:15:19.115Z,5.80
2023-01-11T20:17:47.813Z,4.70
2023-01-11T20:20:18.305Z,4.70
2023-01-11T20:22:49.448Z,4.00
2023-01-11T20:25:17.633Z,4.10
2023-01-11T20:27:47.364Z,3.80
2023-01-11T20:30:16.062Z,3.70
2023-01-11T20:32:44.335Z,3.30
2023-01-11T20:35:12.563Z,2.80
2023-01-11T20:37:40.848Z,3.50
2023-01-11T20:40:14.324Z,3.40
2023-01-11T20:42:43.665Z,2.40
2023-01-11T20:45:11.864Z,2.50
2023-01-11T20:47:40.065Z,2.60
2023-01-11T20:50:09.234Z,2.60
2023-01-11T20:52:38.095Z,2.50
2023-01-11T20:55:07.058Z,2.70
2023-01-11T20:57:35.665Z,2.80
2023-01-11T21:00:04.127Z,2.70
2023-01-11T21:02:32.456Z,2.90
2023-01-11T21:05:01.289Z,3.40
2023-01-11T21:07:29.392Z,2.90
2023-01-11T21:09:57.526Z,3.00
2023-01-11T21:12:25.859Z,2.70
2023-01-11T21:14:54.002Z,2.30
2023-01-11T21:17:22.879Z,2.20
2023-01-11T21:19:51.391Z,2.00
2023-01-11T21:22:19.562Z,2.30
2023-01-11T21:24:47.885Z,1.90
2023-01-11T21:27:16.329Z,1.90
2023-01-11T21:29:44.964Z,2.20
2023-01-11T21:32:13.551Z,2.20
2023-01-11T21:34:42.591Z,2.30
2023-01-11T21:37:11.880Z,2.50
2023-01-11T21:39:40.112Z,3.20
2023-01-11T21:42:08.556Z,3.20
2023-01-11T21:44:37.430Z,3.10
2023-01-11T21:47:06.419Z,3.20
2023-01-11T21:49:34.774Z,3.20
2023-01-11T21:52:03.804Z,3.40
2023-01-11T21:54:33.265Z,3.30
2023-01-11T21:57:07.750Z,2.50
2023-01-11T21:59:37.701Z,2.70
2023-01-11T22:02:06.029Z,2.80
2023-01-11T22:04:36.273Z,2.60
2023-01-11T22:07:04.879Z,2.40
2023-01-11T22:09:33.864Z,2.30
2023-01-11T22:12:02.364Z,2.20
2023-01-11T22:14:31.010Z,2.30
2023-01-11T22:17:00.009Z,2.30
2023-01-11T22:19:28.155Z,2.10
2023-01-11T22:21:56.351Z,2.40
2023-01-11T22:24:24.463Z,2.20
2023-01-11T22:26:52.830Z,2.80
2023-01-11T22:29:21.104Z,2.60
2023-01-11T22:31:51.804Z,2.50
2023-01-11T22:34:20.566Z,2.10
2023-01-11T22:36:49.131Z,2.40
2023-01-11T22:39:17.921Z,2.20
2023-01-11T22:41:48.707Z,2.50
2023-01-11T22:44:17.899Z,2.30
2023-01-11T22:46:46.633Z,2.50
2023-01-11T22:49:15.887Z,2.80
2023-01-11T22:51:45.223Z,2.40
2023-01-11T22:54:15.059Z,2.30
2023-01-11T22:56:43.737Z,2.70
2023-01-11T22:59:12.021Z,2.60
2023-01-11T23:01:41.955Z,2.80
2023-01-11T23:04:13.588Z,2.40
2023-01-11T23:06:43.232Z,2.30
2023-01-11T23:09:15.952Z,2.20
2023-01-11T23:11:45.615Z,2.00
2023-01-11T23:14:16.884Z,2.20
2023-01-11T23:16:47.733Z,1.70
2023-01-11T23:19:19.637Z,1.70
2023-01-11T23:21:48.252Z,1.60
2023-01-11T23:24:17.308Z,1.80
2023-01-11T23:26:46.465Z,1.60
2023-01-11T23:29:16.610Z,1.80
2023-01-11T23:31:45.071Z,1.50
2023-01-11T23:34:13.384Z,2.10
2023-01-11T23:36:43.851Z,3.20
2023-01-11T23:39:15.075Z,3.50
2023-01-11T23:41:43.652Z,3.30
2023-01-11T23:44:14.954Z,3.60
2023-01-11T23:46:43.615Z,3.30
2023-01-11T23:49:12.664Z,3.60
2023-01-11T23:51:42.707Z,3.40
2023-01-11T23:54:10.982Z,3.40
2023-01-11T23:56:39.680Z,2.90
2023-01-11T23:59:08.159Z,3.20
